sensor_id;sensor_type;location;lat;lon;timestamp;temperature;humidity
75372;HTU21D;63956;52.006;5.878;2022-11-23T00:01:51;10.68;74.21
75372;HTU21D;63956;52.006;5.878;2022-11-23T00:04:20;10.64;74.35
75372;HTU21D;63956;52.006;5.878;2022-11-23T00:06:51;10.65;74.42
75372;HTU21D;63956;52.006;5.878;2022-11-23T00:09:22;10.65;74.49
75372;HTU21D;63956;52.006;5.878;2022-11-23T00:11:52;10.64;74.60
75372;HTU21D;63956;52.006;5.878;2022-11-23T00:14:20;10.68;74.35
75372;HTU21D;63956;52.006;5.878;2022-11-23T00:16:50;10.64;74.54
75372;HTU21D;63956;52.006;5.878;2022-11-23T00:19:19;10.69;74.31
75372;HTU21D;63956;52.006;5.878;2022-11-23T00:21:48;10.66;74.51
75372;HTU21D;63956;52.006;5.878;2022-11-23T00:24:17;10.64;74.67
75372;HTU21D;63956;52.006;5.878;2022-11-23T00:26:48;10.68;74.38
75372;HTU21D;63956;52.006;5.878;2022-11-23T00:29:18;10.63;74.65
75372;HTU21D;63956;52.006;5.878;2022-11-23T00:31:47;10.58;74.86
75372;HTU21D;63956;52.006;5.878;2022-11-23T00:34:16;10.59;75.01
75372;HTU21D;63956;52.006;5.878;2022-11-23T00:36:45;10.63;74.96
75372;HTU21D;63956;52.006;5.878;2022-11-23T00:39:14;10.69;74.57
75372;HTU21D;63956;52.006;5.878;2022-11-23T00:41:43;10.65;74.76
75372;HTU21D;63956;52.006;5.878;2022-11-23T00:44:15;10.68;74.54
75372;HTU21D;63956;52.006;5.878;2022-11-23T00:46:44;10.66;74.70
75372;HTU21D;63956;52.006;5.878;2022-11-23T00:49:13;10.68;74.72
75372;HTU21D;63956;52.006;5.878;2022-11-23T00:51:42;10.68;74.79
75372;HTU21D;63956;52.006;5.878;2022-11-23T00:54:12;10.70;74.79
75372;HTU21D;63956;52.006;5.878;2022-11-23T00:56:41;10.73;74.55
75372;HTU21D;63956;52.006;5.878;2022-11-23T00:59:10;10.68;74.83
75372;HTU21D;63956;52.006;5.878;2022-11-23T01:01:42;10.72;74.57
75372;HTU21D;63956;52.006;5.878;2022-11-23T01:04:11;10.68;74.74
75372;HTU21D;63956;52.006;5.878;2022-11-23T01:06:40;10.67;74.96
75372;HTU21D;63956;52.006;5.878;2022-11-23T01:09:12;10.68;75.05
75372;HTU21D;63956;52.006;5.878;2022-11-23T01:11:43;10.72;75.00
75372;HTU21D;63956;52.006;5.878;2022-11-23T01:14:13;10.75;74.89
75372;HTU21D;63956;52.006;5.878;2022-11-23T01:16:45;10.82;74.55
75372;HTU21D;63956;52.006;5.878;2022-11-23T01:19:16;10.77;74.64
75372;HTU21D;63956;52.006;5.878;2022-11-23T01:21:48;10.78;74.73
75372;HTU21D;63956;52.006;5.878;2022-11-23T01:24:20;10.78;74.80
75372;HTU21D;63956;52.006;5.878;2022-11-23T01:26:49;10.81;74.78
75372;HTU21D;63956;52.006;5.878;2022-11-23T01:29:19;10.81;74.71
75372;HTU21D;63956;52.006;5.878;2022-11-23T01:31:51;10.82;74.82
75372;HTU21D;63956;52.006;5.878;2022-11-23T01:34:21;10.81;74.83
75372;HTU21D;63956;52.006;5.878;2022-11-23T01:36:49;10.84;74.64
75372;HTU21D;63956;52.006;5.878;2022-11-23T01:39:19;10.80;74.79
75372;HTU21D;63956;52.006;5.878;2022-11-23T01:41:48;10.78;74.83
75372;HTU21D;63956;52.006;5.878;2022-11-23T01:44:21;10.82;74.67
75372;HTU21D;63956;52.006;5.878;2022-11-23T01:46:57;10.79;74.82
75372;HTU21D;63956;52.006;5.878;2022-11-23T01:49:29;10.79;74.84
75372;HTU21D;63956;52.006;5.878;2022-11-23T01:52:03;10.81;74.78
75372;HTU21D;63956;52.006;5.878;2022-11-23T01:54:37;10.84;74.75
75372;HTU21D;63956;52.006;5.878;2022-11-23T01:57:11;10.88;74.67
75372;HTU21D;63956;52.006;5.878;2022-11-23T01:59:44;10.88;74.59
75372;HTU21D;63956;52.006;5.878;2022-11-23T02:02:17;10.89;74.61
75372;HTU21D;63956;52.006;5.878;2022-11-23T02:04:50;10.89;74.40
75372;HTU21D;63956;52.006;5.878;2022-11-23T02:07:20;10.89;74.57
75372;HTU21D;63956;52.006;5.878;2022-11-23T02:09:51;10.93;74.35
75372;HTU21D;63956;52.006;5.878;2022-11-23T02:12:20;10.92;74.38
75372;HTU21D;63956;52.006;5.878;2022-11-23T02:14:50;10.90;74.34
75372;HTU21D;63956;52.006;5.878;2022-11-23T02:17:22;10.90;74.52
75372;HTU21D;63956;52.006;5.878;2022-11-23T02:20:00;10.92;74.41
75372;HTU21D;63956;52.006;5.878;2022-11-23T02:22:36;10.92;74.38
75372;HTU21D;63956;52.006;5.878;2022-11-23T02:25:15;10.90;74.46
75372;HTU21D;63956;52.006;5.878;2022-11-23T02:27:49;10.88;74.41
75372;HTU21D;63956;52.006;5.878;2022-11-23T02:30:19;10.86;74.37
75372;HTU21D;63956;52.006;5.878;2022-11-23T02:32:51;10.86;74.30
75372;HTU21D;63956;52.006;5.878;2022-11-23T02:35:20;10.90;74.29
75372;HTU21D;63956;52.006;5.878;2022-11-23T02:37:50;10.86;74.15
75372;HTU21D;63956;52.006;5.878;2022-11-23T02:40:26;10.87;74.31
75372;HTU21D;63956;52.006;5.878;2022-11-23T02:43:00;10.90;74.10
75372;HTU21D;63956;52.006;5.878;2022-11-23T02:45:33;10.90;73.99
75372;HTU21D;63956;52.006;5.878;2022-11-23T02:48:04;10.86;74.09
75372;HTU21D;63956;52.006;5.878;2022-11-23T02:50:33;10.86;74.06
75372;HTU21D;63956;52.006;5.878;2022-11-23T02:53:03;10.85;73.90
75372;HTU21D;63956;52.006;5.878;2022-11-23T02:55:31;10.87;74.05
75372;HTU21D;63956;52.006;5.878;2022-11-23T02:58:04;10.85;74.02
75372;HTU21D;63956;52.006;5.878;2022-11-23T03:00:34;10.85;73.81
75372;HTU21D;63956;52.006;5.878;2022-11-23T03:03:04;10.81;73.92
75372;HTU21D;63956;52.006;5.878;2022-11-23T03:05:33;10.81;73.93
75372;HTU21D;63956;52.006;5.878;2022-11-23T03:08:05;10.81;73.57
75372;HTU21D;63956;52.006;5.878;2022-11-23T03:10:34;10.81;73.80
75372;HTU21D;63956;52.006;5.878;2022-11-23T03:13:06;10.80;73.79
75372;HTU21D;63956;52.006;5.878;2022-11-23T03:15:37;10.77;73.64
75372;HTU21D;63956;52.006;5.878;2022-11-23T03:18:06;10.77;73.83
75372;HTU21D;63956;52.006;5.878;2022-11-23T03:20:36;10.72;73.56
75372;HTU21D;63956;52.006;5.878;2022-11-23T03:23:05;10.70;73.90
75372;HTU21D;63956;52.006;5.878;2022-11-23T03:25:34;10.78;73.73
75372;HTU21D;63956;52.006;5.878;2022-11-23T03:28:07;10.77;73.53
75372;HTU21D;63956;52.006;5.878;2022-11-23T03:30:36;10.79;73.58
75372;HTU21D;63956;52.006;5.878;2022-11-23T03:33:06;10.80;73.49
75372;HTU21D;63956;52.006;5.878;2022-11-23T03:35:35;10.83;73.49
75372;HTU21D;63956;52.006;5.878;2022-11-23T03:38:24;10.87;73.41
75372;HTU21D;63956;52.006;5.878;2022-11-23T03:40:54;10.89;73.25
75372;HTU21D;63956;52.006;5.878;2022-11-23T03:43:28;10.88;73.38
75372;HTU21D;63956;52.006;5.878;2022-11-23T03:45:57;10.89;73.34
75372;HTU21D;63956;52.006;5.878;2022-11-23T03:48:26;10.94;73.30
75372;HTU21D;63956;52.006;5.878;2022-11-23T03:50:55;10.92;73.25
75372;HTU21D;63956;52.006;5.878;2022-11-23T03:53:24;10.96;73.19
75372;HTU21D;63956;52.006;5.878;2022-11-23T03:55:53;10.92;73.22
75372;HTU21D;63956;52.006;5.878;2022-11-23T03:58:27;10.88;73.35
75372;HTU21D;63956;52.006;5.878;2022-11-23T04:00:57;10.88;73.36
75372;HTU21D;63956;52.006;5.878;2022-11-23T04:03:27;10.90;73.23
75372;HTU21D;63956;52.006;5.878;2022-11-23T04:05:58;10.87;73.41
75372;HTU21D;63956;52.006;5.878;2022-11-23T04:08:46;10.88;73.35
75372;HTU21D;63956;52.006;5.878;2022-11-23T04:11:25;10.88;73.41
75372;HTU21D;63956;52.006;5.878;2022-11-23T04:13:57;10.88;73.34
75372;HTU21D;63956;52.006;5.878;2022-11-23T04:16:26;10.88;73.14
75372;HTU21D;63956;52.006;5.878;2022-11-23T04:18:56;10.87;73.22
75372;HTU21D;63956;52.006;5.878;2022-11-23T04:21:26;10.88;73.19
75372;HTU21D;63956;52.006;5.878;2022-11-23T04:23:55;10.89;73.24
75372;HTU21D;63956;52.006;5.878;2022-11-23T04:26:26;10.92;73.12
75372;HTU21D;63956;52.006;5.878;2022-11-23T04:28:58;10.94;73.28
75372;HTU21D;63956;52.006;5.878;2022-11-23T04:31:28;10.94;73.08
75372;HTU21D;63956;52.006;5.878;2022-11-23T04:34:13;10.96;73.09
75372;HTU21D;63956;52.006;5.878;2022-11-23T04:36:42;10.96;73.09
75372;HTU21D;63956;52.006;5.878;2022-11-23T04:39:13;10.96;72.83
75372;HTU21D;63956;52.006;5.878;2022-11-23T04:42:01;10.95;73.01
75372;HTU21D;63956;52.006;5.878;2022-11-23T04:44:35;10.95;72.88
75372;HTU21D;63956;52.006;5.878;2022-11-23T04:47:06;10.89;73.01
75372;HTU21D;63956;52.006;5.878;2022-11-23T04:49:37;10.87;73.09
75372;HTU21D;63956;52.006;5.878;2022-11-23T04:52:07;10.87;72.89
75372;HTU21D;63956;52.006;5.878;2022-11-23T04:54:43;10.86;72.94
75372;HTU21D;63956;52.006;5.878;2022-11-23T04:57:12;10.85;73.07
75372;HTU21D;63956;52.006;5.878;2022-11-23T04:59:46;10.83;72.96
75372;HTU21D;63956;52.006;5.878;2022-11-23T05:02:15;10.83;73.17
75372;HTU21D;63956;52.006;5.878;2022-11-23T05:04:44;10.85;73.09
75372;HTU21D;63956;52.006;5.878;2022-11-23T05:07:15;10.79;73.14
75372;HTU21D;63956;52.006;5.878;2022-11-23T05:09:52;10.78;73.06
75372;HTU21D;63956;52.006;5.878;2022-11-23T05:12:21;10.78;72.96
75372;HTU21D;63956;52.006;5.878;2022-11-23T05:14:53;10.75;73.06
75372;HTU21D;63956;52.006;5.878;2022-11-23T05:17:29;10.75;73.05
75372;HTU21D;63956;52.006;5.878;2022-11-23T05:19:58;10.77;73.04
75372;HTU21D;63956;52.006;5.878;2022-11-23T05:22:31;10.78;72.96
75372;HTU21D;63956;52.006;5.878;2022-11-23T05:25:01;10.79;72.96
75372;HTU21D;63956;52.006;5.878;2022-11-23T05:27:33;10.78;72.78
75372;HTU21D;63956;52.006;5.878;2022-11-23T05:30:06;10.78;72.55
75372;HTU21D;63956;52.006;5.878;2022-11-23T05:32:36;10.77;72.69
75372;HTU21D;63956;52.006;5.878;2022-11-23T05:35:07;10.77;72.77
75372;HTU21D;63956;52.006;5.878;2022-11-23T05:37:37;10.77;72.66
75372;HTU21D;63956;52.006;5.878;2022-11-23T05:40:10;10.73;72.71
75372;HTU21D;63956;52.006;5.878;2022-11-23T05:42:40;10.77;72.64
75372;HTU21D;63956;52.006;5.878;2022-11-23T05:45:17;10.79;72.31
75372;HTU21D;63956;52.006;5.878;2022-11-23T05:47:51;10.75;72.29
75372;HTU21D;63956;52.006;5.878;2022-11-23T05:50:30;10.78;72.37
75372;HTU21D;63956;52.006;5.878;2022-11-23T05:53:24;10.78;72.39
75372;HTU21D;63956;52.006;5.878;2022-11-23T05:56:01;10.80;72.54
75372;HTU21D;63956;52.006;5.878;2022-11-23T05:58:35;10.80;72.31
75372;HTU21D;63956;52.006;5.878;2022-11-23T06:01:07;10.80;72.32
75372;HTU21D;63956;52.006;5.878;2022-11-23T06:03:38;10.79;72.51
75372;HTU21D;63956;52.006;5.878;2022-11-23T06:06:08;10.80;72.58
75372;HTU21D;63956;52.006;5.878;2022-11-23T06:08:40;10.81;72.21
75372;HTU21D;63956;52.006;5.878;2022-11-23T06:11:09;10.82;72.11
75372;HTU21D;63956;52.006;5.878;2022-11-23T06:13:39;10.81;72.23
75372;HTU21D;63956;52.006;5.878;2022-11-23T06:16:11;10.81;72.22
75372;HTU21D;63956;52.006;5.878;2022-11-23T06:18:52;10.75;71.93
75372;HTU21D;63956;52.006;5.878;2022-11-23T06:21:21;10.74;72.35
75372;HTU21D;63956;52.006;5.878;2022-11-23T06:23:50;10.73;72.36
75372;HTU21D;63956;52.006;5.878;2022-11-23T06:26:21;10.74;71.69
75372;HTU21D;63956;52.006;5.878;2022-11-23T06:28:50;10.72;71.91
75372;HTU21D;63956;52.006;5.878;2022-11-23T06:31:22;10.70;71.78
75372;HTU21D;63956;52.006;5.878;2022-11-23T06:33:51;10.67;71.94
75372;HTU21D;63956;52.006;5.878;2022-11-23T06:36:21;10.69;71.93
75372;HTU21D;63956;52.006;5.878;2022-11-23T06:38:51;10.70;71.79
75372;HTU21D;63956;52.006;5.878;2022-11-23T06:41:24;10.72;71.71
75372;HTU21D;63956;52.006;5.878;2022-11-23T06:43:53;10.73;71.90
75372;HTU21D;63956;52.006;5.878;2022-11-23T06:46:38;10.73;71.66
75372;HTU21D;63956;52.006;5.878;2022-11-23T06:49:07;10.73;71.78
75372;HTU21D;63956;52.006;5.878;2022-11-23T06:51:37;10.73;71.84
75372;HTU21D;63956;52.006;5.878;2022-11-23T06:54:07;10.79;71.77
75372;HTU21D;63956;52.006;5.878;2022-11-23T06:56:36;10.74;71.42
75372;HTU21D;63956;52.006;5.878;2022-11-23T06:59:05;10.79;71.62
75372;HTU21D;63956;52.006;5.878;2022-11-23T07:01:34;10.77;71.29
75372;HTU21D;63956;52.006;5.878;2022-11-23T07:04:09;10.78;71.49
75372;HTU21D;63956;52.006;5.878;2022-11-23T07:06:46;10.79;71.57
75372;HTU21D;63956;52.006;5.878;2022-11-23T07:09:29;10.78;71.22
75372;HTU21D;63956;52.006;5.878;2022-11-23T07:12:17;10.75;71.32
75372;HTU21D;63956;52.006;5.878;2022-11-23T07:14:46;10.75;71.22
75372;HTU21D;63956;52.006;5.878;2022-11-23T07:17:15;10.78;71.39
75372;HTU21D;63956;52.006;5.878;2022-11-23T07:19:48;10.73;71.17
75372;HTU21D;63956;52.006;5.878;2022-11-23T07:22:17;10.71;71.27
75372;HTU21D;63956;52.006;5.878;2022-11-23T07:24:46;10.70;71.40
75372;HTU21D;63956;52.006;5.878;2022-11-23T07:27:16;10.65;71.26
75372;HTU21D;63956;52.006;5.878;2022-11-23T07:29:45;10.64;71.29
75372;HTU21D;63956;52.006;5.878;2022-11-23T07:32:14;10.64;71.20
75372;HTU21D;63956;52.006;5.878;2022-11-23T07:34:44;10.66;70.97
75372;HTU21D;63956;52.006;5.878;2022-11-23T07:37:17;10.67;70.87
75372;HTU21D;63956;52.006;5.878;2022-11-23T07:39:46;10.64;71.14
75372;HTU21D;63956;52.006;5.878;2022-11-23T07:42:18;10.63;71.30
75372;HTU21D;63956;52.006;5.878;2022-11-23T07:44:47;10.64;71.19
75372;HTU21D;63956;52.006;5.878;2022-11-23T07:47:17;10.64;71.21
75372;HTU21D;63956;52.006;5.878;2022-11-23T07:49:46;10.65;71.25
75372;HTU21D;63956;52.006;5.878;2022-11-23T07:52:17;10.64;71.29
75372;HTU21D;63956;52.006;5.878;2022-11-23T07:54:47;10.66;71.36
75372;HTU21D;63956;52.006;5.878;2022-11-23T07:57:15;10.71;71.16
75372;HTU21D;63956;52.006;5.878;2022-11-23T07:59:44;10.65;71.32
75372;HTU21D;63956;52.006;5.878;2022-11-23T08:02:14;10.59;71.33
75372;HTU21D;63956;52.006;5.878;2022-11-23T08:04:44;10.54;71.53
75372;HTU21D;63956;52.006;5.878;2022-11-23T08:07:13;10.48;71.91
75372;HTU21D;63956;52.006;5.878;2022-11-23T08:09:45;10.48;72.00
75372;HTU21D;63956;52.006;5.878;2022-11-23T08:12:14;10.44;71.98
75372;HTU21D;63956;52.006;5.878;2022-11-23T08:14:43;10.44;71.88
75372;HTU21D;63956;52.006;5.878;2022-11-23T08:17:12;10.49;71.93
75372;HTU21D;63956;52.006;5.878;2022-11-23T08:19:41;10.53;71.74
75372;HTU21D;63956;52.006;5.878;2022-11-23T08:22:10;10.52;71.62
75372;HTU21D;63956;52.006;5.878;2022-11-23T08:24:39;10.52;71.51
75372;HTU21D;63956;52.006;5.878;2022-11-23T08:27:11;10.56;71.87
75372;HTU21D;63956;52.006;5.878;2022-11-23T08:29:40;10.57;71.63
75372;HTU21D;63956;52.006;5.878;2022-11-23T08:32:10;10.60;71.52
75372;HTU21D;63956;52.006;5.878;2022-11-23T08:34:41;10.58;71.44
75372;HTU21D;63956;52.006;5.878;2022-11-23T08:37:10;10.59;71.42
75372;HTU21D;63956;52.006;5.878;2022-11-23T08:39:39;10.67;71.45
75372;HTU21D;63956;52.006;5.878;2022-11-23T08:42:10;10.65;70.93
75372;HTU21D;63956;52.006;5.878;2022-11-23T08:44:40;10.64;71.09
75372;HTU21D;63956;52.006;5.878;2022-11-23T08:47:09;10.65;70.98
75372;HTU21D;63956;52.006;5.878;2022-11-23T08:49:38;10.67;70.83
75372;HTU21D;63956;52.006;5.878;2022-11-23T08:52:07;10.73;70.96
75372;HTU21D;63956;52.006;5.878;2022-11-23T08:54:36;10.74;70.73
75372;HTU21D;63956;52.006;5.878;2022-11-23T08:57:05;10.81;70.72
75372;HTU21D;63956;52.006;5.878;2022-11-23T08:59:36;10.82;70.59
75372;HTU21D;63956;52.006;5.878;2022-11-23T09:02:05;10.88;70.14
75372;HTU21D;63956;52.006;5.878;2022-11-23T09:04:34;10.99;70.32
75372;HTU21D;63956;52.006;5.878;2022-11-23T09:07:03;11.02;69.51
75372;HTU21D;63956;52.006;5.878;2022-11-23T09:09:32;11.12;69.34
75372;HTU21D;63956;52.006;5.878;2022-11-23T09:12:01;11.27;69.49
75372;HTU21D;63956;52.006;5.878;2022-11-23T09:14:30;11.37;68.89
75372;HTU21D;63956;52.006;5.878;2022-11-23T09:17:03;11.47;68.35
75372;HTU21D;63956;52.006;5.878;2022-11-23T09:19:32;11.53;68.65
75372;HTU21D;63956;52.006;5.878;2022-11-23T09:22:01;11.64;68.67
75372;HTU21D;63956;52.006;5.878;2022-11-23T09:24:30;11.63;67.58
75372;HTU21D;63956;52.006;5.878;2022-11-23T09:26:59;11.63;67.65
75372;HTU21D;63956;52.006;5.878;2022-11-23T09:29:28;11.63;67.59
75372;HTU21D;63956;52.006;5.878;2022-11-23T09:31:57;11.62;67.80
75372;HTU21D;63956;52.006;5.878;2022-11-23T09:34:29;11.67;67.53
75372;HTU21D;63956;52.006;5.878;2022-11-23T09:36:58;11.61;67.18
75372;HTU21D;63956;52.006;5.878;2022-11-23T09:39:27;11.58;68.01
75372;HTU21D;63956;52.006;5.878;2022-11-23T09:42:21;11.49;67.52
75372;HTU21D;63956;52.006;5.878;2022-11-23T09:45:03;11.42;67.05
75372;HTU21D;63956;52.006;5.878;2022-11-23T09:47:48;11.36;67.61
75372;HTU21D;63956;52.006;5.878;2022-11-23T09:50:27;11.33;67.78
75372;HTU21D;63956;52.006;5.878;2022-11-23T09:53:04;11.32;67.37
75372;HTU21D;63956;52.006;5.878;2022-11-23T09:55:38;11.30;67.17
75372;HTU21D;63956;52.006;5.878;2022-11-23T09:58:12;11.31;67.28
75372;HTU21D;63956;52.006;5.878;2022-11-23T10:00:46;11.34;66.98
75372;HTU21D;63956;52.006;5.878;2022-11-23T10:03:16;11.42;66.40
75372;HTU21D;63956;52.006;5.878;2022-11-23T10:05:58;11.47;66.27
75372;HTU21D;63956;52.006;5.878;2022-11-23T10:08:36;11.47;66.14
75372;HTU21D;63956;52.006;5.878;2022-11-23T10:14:20;11.59;65.93
75372;HTU21D;63956;52.006;5.878;2022-11-23T10:16:56;11.56;65.97
75372;HTU21D;63956;52.006;5.878;2022-11-23T10:19:36;11.59;65.62
75372;HTU21D;63956;52.006;5.878;2022-11-23T10:22:20;11.59;65.58
75372;HTU21D;63956;52.006;5.878;2022-11-23T10:24:51;11.56;65.98
75372;HTU21D;63956;52.006;5.878;2022-11-23T10:27:22;11.57;66.10
75372;HTU21D;63956;52.006;5.878;2022-11-23T10:29:53;11.61;65.62
75372;HTU21D;63956;52.006;5.878;2022-11-23T10:32:27;11.66;65.85
75372;HTU21D;63956;52.006;5.878;2022-11-23T10:35:01;11.66;65.07
75372;HTU21D;63956;52.006;5.878;2022-11-23T10:37:34;11.64;65.55
75372;HTU21D;63956;52.006;5.878;2022-11-23T10:40:13;11.66;65.30
75372;HTU21D;63956;52.006;5.878;2022-11-23T10:42:46;11.69;65.01
75372;HTU21D;63956;52.006;5.878;2022-11-23T10:45:20;11.69;65.17
75372;HTU21D;63956;52.006;5.878;2022-11-23T10:47:51;11.68;64.63
75372;HTU21D;63956;52.006;5.878;2022-11-23T10:50:26;11.73;64.61
75372;HTU21D;63956;52.006;5.878;2022-11-23T10:53:12;11.78;64.59
75372;HTU21D;63956;52.006;5.878;2022-11-23T10:55:47;11.85;64.14
75372;HTU21D;63956;52.006;5.878;2022-11-23T10:58:26;11.99;64.14
75372;HTU21D;63956;52.006;5.878;2022-11-23T11:01:00;12.07;63.66
75372;HTU21D;63956;52.006;5.878;2022-11-23T11:03:31;12.11;63.24
75372;HTU21D;63956;52.006;5.878;2022-11-23T11:06:01;12.14;63.40
75372;HTU21D;63956;52.006;5.878;2022-11-23T11:08:35;12.25;62.89
75372;HTU21D;63956;52.006;5.878;2022-11-23T11:11:06;12.53;63.47
75372;HTU21D;63956;52.006;5.878;2022-11-23T11:13:41;13.15;62.41
75372;HTU21D;63956;52.006;5.878;2022-11-23T11:16:18;13.44;60.47
75372;HTU21D;63956;52.006;5.878;2022-11-23T11:18:48;13.36;60.59
75372;HTU21D;63956;52.006;5.878;2022-11-23T11:21:19;13.63;60.61
75372;HTU21D;63956;52.006;5.878;2022-11-23T11:23:54;14.38;60.07
75372;HTU21D;63956;52.006;5.878;2022-11-23T11:26:27;15.37;57.39
75372;HTU21D;63956;52.006;5.878;2022-11-23T11:28:57;15.66;56.45
75372;HTU21D;63956;52.006;5.878;2022-11-23T11:31:44;15.33;56.73
75372;HTU21D;63956;52.006;5.878;2022-11-23T11:34:16;15.29;57.39
75372;HTU21D;63956;52.006;5.878;2022-11-23T11:36:53;15.70;55.29
75372;HTU21D;63956;52.006;5.878;2022-11-23T11:39:31;16.71;55.03
75372;HTU21D;63956;52.006;5.878;2022-11-23T11:42:04;17.79;51.74
75372;HTU21D;63956;52.006;5.878;2022-11-23T11:44:35;18.50;50.78
75372;HTU21D;63956;52.006;5.878;2022-11-23T11:47:14;18.85;49.70
75372;HTU21D;63956;52.006;5.878;2022-11-23T11:49:49;18.20;50.79
75372;HTU21D;63956;52.006;5.878;2022-11-23T11:52:25;17.55;52.02
75372;HTU21D;63956;52.006;5.878;2022-11-23T11:55:06;17.21;52.57
75372;HTU21D;63956;52.006;5.878;2022-11-23T11:57:42;16.93;53.01
75372;HTU21D;63956;52.006;5.878;2022-11-23T12:00:17;16.61;53.28
75372;HTU21D;63956;52.006;5.878;2022-11-23T12:02:56;16.30;53.58
75372;HTU21D;63956;52.006;5.878;2022-11-23T12:05:34;16.06;53.50
75372;HTU21D;63956;52.006;5.878;2022-11-23T12:08:08;16.05;51.91
75372;HTU21D;63956;52.006;5.878;2022-11-23T12:10:46;16.01;52.14
75372;HTU21D;63956;52.006;5.878;2022-11-23T12:13:19;15.77;52.96
75372;HTU21D;63956;52.006;5.878;2022-11-23T12:15:53;15.59;53.32
75372;HTU21D;63956;52.006;5.878;2022-11-23T12:18:39;15.25;54.59
75372;HTU21D;63956;52.006;5.878;2022-11-23T12:21:21;14.97;55.19
75372;HTU21D;63956;52.006;5.878;2022-11-23T12:23:57;14.85;55.59
75372;HTU21D;63956;52.006;5.878;2022-11-23T12:26:43;14.87;55.26
75372;HTU21D;63956;52.006;5.878;2022-11-23T12:29:38;14.95;55.23
75372;HTU21D;63956;52.006;5.878;2022-11-23T12:32:20;15.06;54.48
75372;HTU21D;63956;52.006;5.878;2022-11-23T12:35:02;15.29;54.70
75372;HTU21D;63956;52.006;5.878;2022-11-23T12:37:43;15.13;55.08
75372;HTU21D;63956;52.006;5.878;2022-11-23T12:40:34;14.97;55.04
75372;HTU21D;63956;52.006;5.878;2022-11-23T12:43:13;15.15;54.91
75372;HTU21D;63956;52.006;5.878;2022-11-23T12:46:08;15.83;53.63
75372;HTU21D;63956;52.006;5.878;2022-11-23T12:48:56;16.00;53.10
75372;HTU21D;63956;52.006;5.878;2022-11-23T12:51:35;16.07;53.20
75372;HTU21D;63956;52.006;5.878;2022-11-23T12:57:16;15.68;52.31
75372;HTU21D;63956;52.006;5.878;2022-11-23T12:59:53;15.46;53.20
75372;HTU21D;63956;52.006;5.878;2022-11-23T13:08:48;14.82;54.71
75372;HTU21D;63956;52.006;5.878;2022-11-23T13:11:34;14.75;54.91
75372;HTU21D;63956;52.006;5.878;2022-11-23T13:14:12;14.67;54.81
75372;HTU21D;63956;52.006;5.878;2022-11-23T13:20:01;14.72;54.82
75372;HTU21D;63956;52.006;5.878;2022-11-23T13:22:34;14.63;55.19
75372;HTU21D;63956;52.006;5.878;2022-11-23T13:25:18;14.47;55.23
75372;HTU21D;63956;52.006;5.878;2022-11-23T13:27:57;14.30;55.09
75372;HTU21D;63956;52.006;5.878;2022-11-23T13:30:31;14.25;54.77
75372;HTU21D;63956;52.006;5.878;2022-11-23T13:33:24;14.23;55.16
75372;HTU21D;63956;52.006;5.878;2022-11-23T13:35:56;14.13;55.13
75372;HTU21D;63956;52.006;5.878;2022-11-23T13:38:37;14.04;56.09
75372;HTU21D;63956;52.006;5.878;2022-11-23T13:44:11;13.65;57.08
75372;HTU21D;63956;52.006;5.878;2022-11-23T13:46:40;13.46;56.93
75372;HTU21D;63956;52.006;5.878;2022-11-23T13:49:34;13.31;57.13
75372;HTU21D;63956;52.006;5.878;2022-11-23T13:52:24;13.17;57.39
75372;HTU21D;63956;52.006;5.878;2022-11-23T13:54:56;13.05;57.99
75372;HTU21D;63956;52.006;5.878;2022-11-23T13:57:27;13.01;57.33
75372;HTU21D;63956;52.006;5.878;2022-11-23T14:06:13;12.82;57.25
75372;HTU21D;63956;52.006;5.878;2022-11-23T14:08:44;12.77;57.42
75372;HTU21D;63956;52.006;5.878;2022-11-23T14:11:18;12.72;57.75
75372;HTU21D;63956;52.006;5.878;2022-11-23T14:13:53;12.67;57.55
75372;HTU21D;63956;52.006;5.878;2022-11-23T14:19:34;12.60;57.78
75372;HTU21D;63956;52.006;5.878;2022-11-23T14:22:14;12.55;57.76
75372;HTU21D;63956;52.006;5.878;2022-11-23T14:28:00;12.47;57.71
75372;HTU21D;63956;52.006;5.878;2022-11-23T14:30:42;12.44;58.30
75372;HTU21D;63956;52.006;5.878;2022-11-23T14:33:15;12.42;58.23
75372;HTU21D;63956;52.006;5.878;2022-11-23T14:35:52;12.31;58.51
75372;HTU21D;63956;52.006;5.878;2022-11-23T14:38:50;12.19;59.08
75372;HTU21D;63956;52.006;5.878;2022-11-23T14:41:24;12.05;60.01
75372;HTU21D;63956;52.006;5.878;2022-11-23T14:43:54;11.92;61.29
75372;HTU21D;63956;52.006;5.878;2022-11-23T14:46:25;11.78;61.83
75372;HTU21D;63956;52.006;5.878;2022-11-23T14:49:02;11.67;62.55
75372;HTU21D;63956;52.006;5.878;2022-11-23T14:51:33;11.59;63.59
75372;HTU21D;63956;52.006;5.878;2022-11-23T14:54:07;11.54;63.61
75372;HTU21D;63956;52.006;5.878;2022-11-23T14:56:40;11.43;64.28
75372;HTU21D;63956;52.006;5.878;2022-11-23T14:59:18;11.41;64.30
75372;HTU21D;63956;52.006;5.878;2022-11-23T15:01:51;11.38;64.86
75372;HTU21D;63956;52.006;5.878;2022-11-23T15:04:23;11.30;65.21
75372;HTU21D;63956;52.006;5.878;2022-11-23T15:06:58;11.29;65.53
75372;HTU21D;63956;52.006;5.878;2022-11-23T15:09:43;11.26;65.15
75372;HTU21D;63956;52.006;5.878;2022-11-23T15:12:21;11.19;65.55
75372;HTU21D;63956;52.006;5.878;2022-11-23T15:14:51;11.13;66.24
75372;HTU21D;63956;52.006;5.878;2022-11-23T15:17:23;11.11;66.64
75372;HTU21D;63956;52.006;5.878;2022-11-23T15:19:56;11.09;66.92
75372;HTU21D;63956;52.006;5.878;2022-11-23T15:22:26;11.10;67.07
75372;HTU21D;63956;52.006;5.878;2022-11-23T15:25:10;11.04;66.93
75372;HTU21D;63956;52.006;5.878;2022-11-23T15:27:41;10.94;67.72
75372;HTU21D;63956;52.006;5.878;2022-11-23T15:30:17;10.88;67.61
75372;HTU21D;63956;52.006;5.878;2022-11-23T15:32:57;10.82;67.89
75372;HTU21D;63956;52.006;5.878;2022-11-23T15:35:30;10.73;68.75
75372;HTU21D;63956;52.006;5.878;2022-11-23T15:38:01;10.70;69.00
75372;HTU21D;63956;52.006;5.878;2022-11-23T15:40:35;10.65;69.13
75372;HTU21D;63956;52.006;5.878;2022-11-23T15:43:09;10.60;69.32
75372;HTU21D;63956;52.006;5.878;2022-11-23T15:45:58;10.58;69.04
75372;HTU21D;63956;52.006;5.878;2022-11-23T15:48:31;10.55;69.52
75372;HTU21D;63956;52.006;5.878;2022-11-23T15:51:02;10.51;70.19
75372;HTU21D;63956;52.006;5.878;2022-11-23T15:53:34;10.49;70.32
75372;HTU21D;63956;52.006;5.878;2022-11-23T15:56:13;10.51;70.17
75372;HTU21D;63956;52.006;5.878;2022-11-23T15:58:47;10.48;70.64
75372;HTU21D;63956;52.006;5.878;2022-11-23T16:01:17;10.42;70.73
75372;HTU21D;63956;52.006;5.878;2022-11-23T16:03:48;10.39;71.00
75372;HTU21D;63956;52.006;5.878;2022-11-23T16:06:32;10.38;70.87
75372;HTU21D;63956;52.006;5.878;2022-11-23T16:09:03;10.33;71.40
75372;HTU21D;63956;52.006;5.878;2022-11-23T16:11:35;10.34;71.31
75372;HTU21D;63956;52.006;5.878;2022-11-23T16:14:16;10.37;70.83
75372;HTU21D;63956;52.006;5.878;2022-11-23T16:16:46;10.35;71.50
75372;HTU21D;63956;52.006;5.878;2022-11-23T16:19:26;10.37;71.14
75372;HTU21D;63956;52.006;5.878;2022-11-23T16:21:59;10.33;71.48
75372;HTU21D;63956;52.006;5.878;2022-11-23T16:24:30;10.31;71.53